Assumption, Nebraska
Current Conditions -  °F | °C
As of 2:53 PM on Friday 28 Nov 2014 (Local Time) from KHSI Reporting Station
Clear Clear  
Wind Chill: 74°   Ceiling: Unl
Heat Index: 74°   Visibility: 10mi
Dew Point: 21°   Wind: 16mph
Humidity: 14%   Direction: 250°WSW
Pressure: 29.67"   Gusts: NA
Location:  40.5679°N, 98.5535°W
Report Text: KHSI 282053Z AUTO 25014KT 10SM CLR 23/M06 A2967 RMK AO2 SLP048 T02331061 56028
Loading
Personal Weather Stations






























Interactive Weather Map New forecast layout! Learn more

10-Day Weather Forecast

Advertisements
Track Severe Weather on mobile